createdAt,value
2023-06-21T00:00:39.953Z,101639.28
2023-06-21T00:03:06.564Z,101639.66
2023-06-21T00:05:33.513Z,101633.72
2023-06-21T00:08:00.136Z,101633.56
2023-06-21T00:10:28.556Z,101630.97
2023-06-21T00:12:56.282Z,101633.16
2023-06-21T00:15:23.503Z,101638.22
2023-06-21T00:17:50.209Z,101633.72
2023-06-21T00:20:16.694Z,101630.44
2023-06-21T00:22:49.192Z,101621.78
2023-06-21T00:25:18.722Z,101620.72
2023-06-21T00:27:45.253Z,101618.06
2023-06-21T00:30:11.827Z,101626.06
2023-06-21T00:32:38.993Z,101621.63
2023-06-21T00:35:06.030Z,101626.97
2023-06-21T00:37:32.528Z,101628.97
2023-06-21T00:39:59.004Z,101632.31
2023-06-21T00:42:25.512Z,101627.75
2023-06-21T00:44:51.992Z,101627.34
2023-06-21T00:47:19.736Z,101622.22
2023-06-21T00:49:46.231Z,101626.34
2023-06-21T00:52:12.675Z,101619.22
2023-06-21T00:54:41.802Z,101622.38
2023-06-21T00:57:08.540Z,101626.84
2023-06-21T00:59:34.970Z,101614.44
2023-06-21T01:02:04.232Z,101615.53
2023-06-21T01:04:31.417Z,101626.66
2023-06-21T01:07:07.066Z,101625.31
2023-06-21T01:09:36.672Z,101618.88
2023-06-21T01:12:06.143Z,101617.19
2023-06-21T01:14:53.051Z,101618.06
2023-06-21T01:17:20.241Z,101621.78
2023-06-21T01:19:52.516Z,101616.34
2023-06-21T01:22:22.952Z,101620.94
2023-06-21T01:24:49.707Z,101617.88
2023-06-21T01:27:35.993Z,101624.03
2023-06-21T01:30:03.302Z,101629.00
2023-06-21T01:32:30.035Z,101631.06
2023-06-21T01:34:56.996Z,101627.66
2023-06-21T01:37:23.494Z,101625.44
2023-06-21T01:39:49.944Z,101617.59
2023-06-21T01:42:16.443Z,101609.59
2023-06-21T01:44:42.972Z,101623.06
2023-06-21T01:47:09.388Z,101631.59
2023-06-21T01:49:35.808Z,101623.03
2023-06-21T01:52:05.903Z,101617.75
2023-06-21T01:54:32.551Z,101616.91
2023-06-21T01:57:02.050Z,101617.97
2023-06-21T01:59:29.267Z,101618.97
2023-06-21T02:01:58.995Z,101629.03
2023-06-21T02:04:26.917Z,101638.41
2023-06-21T02:06:53.597Z,101638.91
2023-06-21T02:09:21.184Z,101636.69
2023-06-21T02:11:47.614Z,101627.53
2023-06-21T02:14:14.086Z,101628.03
2023-06-21T02:16:40.636Z,101630.94
2023-06-21T02:19:07.045Z,101623.94
2023-06-21T02:21:33.874Z,101625.47
2023-06-21T02:24:00.545Z,101628.88
2023-06-21T02:26:27.021Z,101621.69
2023-06-21T02:28:53.434Z,101625.59
2023-06-21T02:31:20.846Z,101622.47
2023-06-21T02:33:47.395Z,101605.41
2023-06-21T02:36:14.917Z,101607.47
2023-06-21T02:38:41.384Z,101603.22
2023-06-21T02:41:07.992Z,101607.47
2023-06-21T02:43:34.725Z,101612.09
2023-06-21T02:46:01.902Z,101597.63
2023-06-21T02:48:28.395Z,101593.00
2023-06-21T02:50:54.840Z,101600.13
2023-06-21T02:53:21.294Z,101600.47
2023-06-21T02:55:47.774Z,101593.31
2023-06-21T02:58:14.245Z,101602.38
2023-06-21T03:00:42.337Z,101602.91
2023-06-21T03:03:09.055Z,101606.38
2023-06-21T03:05:36.293Z,101607.06
2023-06-21T03:08:06.159Z,101614.22
2023-06-21T03:10:37.400Z,101611.34
2023-06-21T03:13:04.477Z,101625.97
2023-06-21T03:15:32.419Z,101623.41
2023-06-21T03:17:58.936Z,101639.75
2023-06-21T03:20:27.136Z,101637.38
2023-06-21T03:22:53.921Z,101633.13
2023-06-21T03:25:20.478Z,101628.16
2023-06-21T03:27:46.965Z,101626.13
2023-06-21T03:30:14.648Z,101623.72
2023-06-21T03:32:47.376Z,101638.72
2023-06-21T03:35:17.434Z,101649.25
2023-06-21T03:37:43.896Z,101629.53
2023-06-21T03:40:14.281Z,101634.97
2023-06-21T03:42:44.440Z,101639.91
2023-06-21T03:45:11.151Z,101647.59
2023-06-21T03:47:38.661Z,101650.13
2023-06-21T03:50:05.293Z,101655.41
2023-06-21T03:52:31.784Z,101659.53
2023-06-21T03:54:58.410Z,101657.84
2023-06-21T03:57:24.997Z,101647.81
2023-06-21T03:59:51.443Z,101659.19
2023-06-21T04:02:18.891Z,101662.22
2023-06-21T04:04:46.408Z,101664.78
2023-06-21T04:07:13.856Z,101671.78
2023-06-21T04:09:40.349Z,101674.50
2023-06-21T04:12:07.082Z,101671.47
2023-06-21T04:14:33.501Z,101669.09
2023-06-21T04:16:59.991Z,101667.38
2023-06-21T04:19:26.441Z,101659.19
2023-06-21T04:21:53.010Z,101661.22
2023-06-21T04:24:19.509Z,101661.56
2023-06-21T04:26:45.958Z,101661.19
2023-06-21T04:29:12.467Z,101669.88
2023-06-21T04:31:41.218Z,101670.72
2023-06-21T04:34:07.742Z,101670.50
2023-06-21T04:36:34.160Z,101664.00
2023-06-21T04:39:01.178Z,101665.13
2023-06-21T04:41:27.688Z,101669.19
2023-06-21T04:43:54.131Z,101680.72
2023-06-21T04:46:22.889Z,101674.19
2023-06-21T04:48:49.515Z,101675.19
2023-06-21T04:51:16.526Z,101678.88
2023-06-21T04:53:45.225Z,101676.69
2023-06-21T04:56:13.835Z,101674.69
2023-06-21T04:58:40.952Z,101674.25
2023-06-21T05:01:07.673Z,101672.31
2023-06-21T05:03:34.233Z,101675.84
2023-06-21T05:06:01.423Z,101670.84
2023-06-21T05:08:27.974Z,101673.31
2023-06-21T05:10:54.519Z,101671.06
2023-06-21T05:13:21.310Z,101671.06
2023-06-21T05:15:48.021Z,101663.75
2023-06-21T05:18:14.477Z,101661.75
2023-06-21T05:20:42.908Z,101653.34
2023-06-21T05:23:09.386Z,101666.84
2023-06-21T05:25:35.879Z,101672.13
2023-06-21T05:28:02.384Z,101680.94
2023-06-21T05:30:28.978Z,101678.97
2023-06-21T05:32:55.726Z,101667.28
2023-06-21T05:35:22.322Z,101668.94
2023-06-21T05:37:48.853Z,101669.03
2023-06-21T05:40:15.328Z,101674.31
2023-06-21T05:42:42.789Z,101676.56
2023-06-21T05:45:09.439Z,101677.88
2023-06-21T05:47:35.944Z,101680.19
2023-06-21T05:50:02.949Z,101683.50
2023-06-21T05:52:29.619Z,101686.91
2023-06-21T05:54:56.052Z,101678.31
2023-06-21T05:57:22.635Z,101678.63
2023-06-21T05:59:49.111Z,101678.47
2023-06-21T06:02:15.598Z,101684.88
2023-06-21T06:04:42.113Z,101694.88
2023-06-21T06:07:08.691Z,101693.94
2023-06-21T06:09:35.163Z,101693.97
2023-06-21T06:12:01.667Z,101690.19
2023-06-21T06:14:28.157Z,101691.59
2023-06-21T06:16:54.585Z,101697.22
2023-06-21T06:19:21.045Z,101694.38
2023-06-21T06:21:48.273Z,101703.34
2023-06-21T06:24:14.772Z,101698.63
2023-06-21T06:26:41.178Z,101703.78
2023-06-21T06:29:07.636Z,101698.34
2023-06-21T06:31:34.147Z,101713.47
2023-06-21T06:34:00.631Z,101698.75
2023-06-21T06:36:27.089Z,101693.34
2023-06-21T06:38:53.523Z,101695.56
2023-06-21T06:41:20.600Z,101689.06
2023-06-21T06:43:47.061Z,101683.03
2023-06-21T06:46:13.626Z,101688.63
2023-06-21T06:48:40.116Z,101690.91
2023-06-21T06:51:06.589Z,101693.09
2023-06-21T06:53:33.079Z,101691.94
2023-06-21T06:56:00.484Z,101701.34
2023-06-21T06:58:28.951Z,101701.78
2023-06-21T07:00:55.810Z,101711.38
2023-06-21T07:03:22.398Z,101703.56
2023-06-21T07:05:49.079Z,101701.09
2023-06-21T07:08:15.831Z,101700.28
2023-06-21T07:10:42.357Z,101708.31
2023-06-21T07:13:08.876Z,101707.53
2023-06-21T07:15:35.385Z,101705.44
2023-06-21T07:18:01.977Z,101700.38
2023-06-21T07:20:28.938Z,101710.94
2023-06-21T07:22:56.934Z,101708.84
2023-06-21T07:25:23.800Z,101701.22
2023-06-21T07:27:50.529Z,101702.06
2023-06-21T07:30:18.011Z,101709.91
2023-06-21T07:32:44.642Z,101704.81
2023-06-21T07:35:11.173Z,101703.97
2023-06-21T07:37:37.670Z,101710.13
2023-06-21T07:40:06.465Z,101719.44
2023-06-21T07:42:32.973Z,101716.50
2023-06-21T07:45:00.934Z,101712.22
2023-06-21T07:47:27.545Z,101687.38
2023-06-21T07:49:54.039Z,101676.53
2023-06-21T07:52:20.539Z,101690.03
2023-06-21T07:54:49.585Z,101689.97
2023-06-21T07:57:17.427Z,101679.75
2023-06-21T07:59:43.878Z,101672.91
2023-06-21T08:02:10.859Z,101690.63
2023-06-21T08:04:38.481Z,101696.75
2023-06-21T08:07:04.974Z,101693.94
2023-06-21T08:09:31.429Z,101686.97
2023-06-21T08:11:58.653Z,101693.09
2023-06-21T08:14:25.129Z,101695.06
2023-06-21T08:16:51.570Z,101694.44
2023-06-21T08:19:18.091Z,101680.97
2023-06-21T08:21:46.290Z,101691.81
2023-06-21T08:24:12.989Z,101691.19
2023-06-21T08:26:39.474Z,101687.00
2023-06-21T08:29:05.920Z,101689.16
2023-06-21T08:31:32.371Z,101687.03
2023-06-21T08:33:58.826Z,101694.66
2023-06-21T08:36:27.555Z,101690.88
2023-06-21T08:38:54.013Z,101696.41
2023-06-21T08:41:20.520Z,101698.13
2023-06-21T08:43:47.038Z,101698.50
2023-06-21T08:46:13.671Z,101706.53
2023-06-21T08:48:40.145Z,101708.81
2023-06-21T08:51:06.808Z,101704.31
2023-06-21T08:53:35.835Z,101709.13
2023-06-21T08:56:02.260Z,101709.66
2023-06-21T08:58:29.052Z,101705.41
2023-06-21T09:00:55.623Z,101699.59
2023-06-21T09:03:29.684Z,101699.81
2023-06-21T09:05:56.945Z,101712.53
2023-06-21T09:08:23.421Z,101718.66
2023-06-21T09:10:50.089Z,101706.41
2023-06-21T09:13:16.521Z,101700.72
2023-06-21T09:15:42.998Z,101703.31
2023-06-21T09:18:09.476Z,101710.94
2023-06-21T09:20:35.945Z,101707.75
2023-06-21T09:23:02.499Z,101712.88
2023-06-21T09:25:28.934Z,101708.31
2023-06-21T09:27:55.421Z,101701.94
2023-06-21T09:32:51.973Z,101713.91
2023-06-21T09:35:18.592Z,101722.41
2023-06-21T09:37:45.864Z,101725.59
2023-06-21T09:40:14.463Z,101728.94
2023-06-21T09:42:41.035Z,101733.56
2023-06-21T09:45:11.195Z,101736.09
2023-06-21T09:47:37.889Z,101737.13
2023-06-21T09:50:07.853Z,101736.13
2023-06-21T09:52:34.513Z,101718.38
2023-06-21T09:55:01.174Z,101722.59
2023-06-21T09:57:28.682Z,101704.38
2023-06-21T09:59:55.155Z,101702.66
2023-06-21T10:02:21.629Z,101698.81
2023-06-21T10:04:48.104Z,101702.19
2023-06-21T10:07:15.901Z,101706.78
2023-06-21T10:09:42.895Z,101701.28
2023-06-21T10:12:12.820Z,101705.09
2023-06-21T10:14:40.123Z,101706.78
2023-06-21T10:17:06.626Z,101706.59
2023-06-21T10:19:33.074Z,101712.34
2023-06-21T10:22:11.431Z,101717.41
2023-06-21T10:24:41.691Z,101714.66
2023-06-21T10:27:08.638Z,101713.59
2023-06-21T10:29:35.336Z,101720.88
2023-06-21T10:32:02.092Z,101718.66
2023-06-21T10:34:30.904Z,101710.72
2023-06-21T10:37:17.591Z,101702.25
2023-06-21T10:39:44.007Z,101702.88
2023-06-21T10:42:11.010Z,101701.41
2023-06-21T10:44:37.456Z,101692.31
2023-06-21T10:47:04.044Z,101700.06
2023-06-21T10:49:30.500Z,101698.97
2023-06-21T10:51:56.970Z,101690.25
2023-06-21T10:54:23.446Z,101684.56
2023-06-21T10:56:50.652Z,101700.97
2023-06-21T10:59:17.174Z,101697.97
2023-06-21T11:01:43.676Z,101697.22
2023-06-21T11:04:10.247Z,101702.84
2023-06-21T11:06:41.347Z,101701.13
2023-06-21T11:09:11.156Z,101696.44
2023-06-21T11:11:41.552Z,101711.19
2023-06-21T11:14:07.981Z,101701.91
2023-06-21T11:16:35.369Z,101706.34
2023-06-21T11:19:07.103Z,101698.38
2023-06-21T11:21:48.769Z,101700.69
2023-06-21T11:24:18.916Z,101700.31
2023-06-21T11:27:04.303Z,101688.47
2023-06-21T11:29:33.849Z,101688.47
2023-06-21T11:32:12.852Z,101706.84
2023-06-21T11:34:57.755Z,101726.84
2023-06-21T11:37:42.522Z,101723.72
2023-06-21T11:40:10.438Z,101703.47
2023-06-21T11:42:38.040Z,101702.63
2023-06-21T11:45:20.508Z,101697.56
2023-06-21T11:48:00.381Z,101701.59
2023-06-21T11:50:34.666Z,101695.66
2023-06-21T11:53:21.780Z,101697.31
2023-06-21T11:55:49.391Z,101684.69
2023-06-21T11:58:16.256Z,101685.78
2023-06-21T12:00:42.818Z,101689.47
2023-06-21T12:03:11.346Z,101694.16
2023-06-21T12:05:46.996Z,101688.75
2023-06-21T12:08:13.382Z,101692.78
2023-06-21T12:10:39.812Z,101693.81
2023-06-21T12:13:06.743Z,101695.94
2023-06-21T12:15:33.412Z,101705.31
2023-06-21T12:18:00.034Z,101702.38
2023-06-21T12:20:26.766Z,101692.84
2023-06-21T12:22:53.471Z,101696.41
2023-06-21T12:25:20.388Z,101679.28
2023-06-21T12:27:56.261Z,101683.31
2023-06-21T12:30:22.970Z,101684.59
2023-06-21T12:32:50.664Z,101693.88
2023-06-21T12:35:17.930Z,101684.31
2023-06-21T12:37:45.848Z,101678.19
2023-06-21T12:40:13.277Z,101672.88
2023-06-21T12:42:39.800Z,101685.06
2023-06-21T12:45:06.797Z,101688.19
2023-06-21T12:47:33.590Z,101687.16
2023-06-21T12:50:03.347Z,101683.34
2023-06-21T12:52:30.247Z,101671.50
2023-06-21T12:54:56.820Z,101671.31
2023-06-21T12:57:27.300Z,101677.16
2023-06-21T12:59:53.708Z,101672.66
2023-06-21T13:02:27.349Z,101683.41
2023-06-21T13:04:54.726Z,101683.03
2023-06-21T13:07:21.156Z,101683.13
2023-06-21T13:09:47.656Z,101678.94
2023-06-21T13:12:14.109Z,101674.31
2023-06-21T13:14:40.576Z,101680.25
2023-06-21T13:17:07.139Z,101669.91
2023-06-21T13:19:39.154Z,101676.25
2023-06-21T13:22:06.085Z,101675.19
2023-06-21T13:24:32.511Z,101660.56
2023-06-21T13:26:59.623Z,101655.47
2023-06-21T13:29:26.227Z,101658.00
2023-06-21T13:31:52.720Z,101669.59
2023-06-21T13:34:19.198Z,101668.25
2023-06-21T13:36:45.669Z,101657.41
2023-06-21T13:39:12.119Z,101666.09
2023-06-21T13:41:39.700Z,101669.75
2023-06-21T13:44:06.170Z,101667.97
2023-06-21T13:46:32.684Z,101673.00
2023-06-21T13:48:59.195Z,101664.94
2023-06-21T13:51:25.625Z,101661.69
2023-06-21T13:53:52.096Z,101650.31
2023-06-21T13:56:18.837Z,101629.06
2023-06-21T13:58:46.518Z,101641.81
2023-06-21T14:01:13.018Z,101660.06
2023-06-21T14:03:39.685Z,101670.59
2023-06-21T14:06:06.274Z,101659.13
2023-06-21T14:08:32.856Z,101649.22
2023-06-21T14:10:59.348Z,101651.63
2023-06-21T14:13:25.851Z,101647.06
2023-06-21T14:15:52.335Z,101654.88
2023-06-21T14:18:21.579Z,101653.13
2023-06-21T14:20:49.931Z,101642.53
2023-06-21T14:23:16.399Z,101634.03
2023-06-21T14:25:44.838Z,101635.50
2023-06-21T14:28:11.361Z,101634.41
2023-06-21T14:30:37.821Z,101631.66
2023-06-21T14:33:08.275Z,101633.09
2023-06-21T14:35:35.110Z,101625.50
2023-06-21T14:38:01.614Z,101621.72
2023-06-21T14:40:28.446Z,101611.38
2023-06-21T14:42:56.112Z,101609.66
2023-06-21T14:45:22.728Z,101615.59
2023-06-21T14:47:50.450Z,101624.88
2023-06-21T14:50:16.982Z,101624.06
2023-06-21T14:52:44.702Z,101627.25
2023-06-21T14:55:11.114Z,101634.03
2023-06-21T14:57:39.222Z,101634.69
2023-06-21T15:00:06.385Z,101630.25
2023-06-21T15:02:32.935Z,101623.50
2023-06-21T15:04:59.479Z,101621.56
2023-06-21T15:07:25.918Z,101638.50
2023-06-21T15:09:54.323Z,101637.69
2023-06-21T15:12:20.850Z,101630.47
2023-06-21T15:14:47.268Z,101626.63
2023-06-21T15:17:13.732Z,101624.50
2023-06-21T15:19:40.273Z,101617.88
2023-06-21T15:22:06.728Z,101622.19
2023-06-21T15:24:33.203Z,101626.34
2023-06-21T15:26:59.676Z,101619.13
2023-06-21T15:29:27.168Z,101617.88
2023-06-21T15:31:53.672Z,101623.88
2023-06-21T15:34:20.159Z,101624.63
2023-06-21T15:36:47.345Z,101611.97
2023-06-21T15:39:13.994Z,101612.66
2023-06-21T15:41:43.039Z,101617.53
2023-06-21T15:44:09.488Z,101614.97
2023-06-21T15:46:35.997Z,101616.47
2023-06-21T15:49:02.459Z,101611.22
2023-06-21T15:51:29.014Z,101601.72
2023-06-21T15:53:58.854Z,101595.00
2023-06-21T15:56:25.877Z,101597.16
2023-06-21T15:58:52.802Z,101593.75
2023-06-21T16:01:19.532Z,101592.72
2023-06-21T16:03:47.822Z,101597.59
2023-06-21T16:06:14.781Z,101602.25
2023-06-21T16:08:42.800Z,101599.50
2023-06-21T16:11:11.990Z,101589.53
2023-06-21T16:13:46.351Z,101593.28
2023-06-21T16:16:14.276Z,101594.56
2023-06-21T16:18:40.895Z,101590.34
2023-06-21T16:21:07.335Z,101587.16
2023-06-21T16:23:34.137Z,101591.63
2023-06-21T16:26:00.591Z,101584.47
2023-06-21T16:28:27.079Z,101587.00
2023-06-21T16:30:53.566Z,101579.59
2023-06-21T16:33:20.361Z,101570.28
2023-06-21T16:35:47.116Z,101568.19
2023-06-21T16:38:13.618Z,101577.47
2023-06-21T16:40:40.052Z,101569.63
2023-06-21T16:43:06.475Z,101575.75
2023-06-21T16:45:33.014Z,101560.31
2023-06-21T16:47:59.505Z,101555.66
2023-06-21T16:50:27.031Z,101552.69
2023-06-21T16:52:53.577Z,101535.34
2023-06-21T16:55:20.106Z,101526.69
2023-06-21T16:57:46.578Z,101545.03
2023-06-21T17:00:15.067Z,101555.63
2023-06-21T17:02:41.653Z,101550.34
2023-06-21T17:05:08.919Z,101563.25
2023-06-21T17:07:35.990Z,101550.78
2023-06-21T17:10:02.747Z,101566.84
2023-06-21T17:12:29.274Z,101571.09
2023-06-21T17:14:55.815Z,101571.94
2023-06-21T17:17:22.282Z,101584.84
2023-06-21T17:19:48.886Z,101579.97
2023-06-21T17:22:15.894Z,101579.75
2023-06-21T17:24:42.989Z,101576.84
2023-06-21T17:27:09.711Z,101582.97
2023-06-21T17:29:36.462Z,101589.50
2023-06-21T17:32:03.772Z,101588.59
2023-06-21T17:34:30.322Z,101583.09
2023-06-21T17:36:56.979Z,101581.75
2023-06-21T17:39:25.115Z,101581.75
2023-06-21T17:41:51.913Z,101577.44
2023-06-21T17:44:18.372Z,101579.28
2023-06-21T17:46:44.839Z,101580.25
2023-06-21T17:49:11.375Z,101572.84
2023-06-21T17:51:37.897Z,101576.63
2023-06-21T17:54:04.322Z,101571.34
2023-06-21T17:56:31.573Z,101571.34
2023-06-21T17:58:58.077Z,101565.84
2023-06-21T18:01:25.694Z,101572.19
2023-06-21T18:03:52.388Z,101548.94
2023-06-21T18:06:20.084Z,101564.38
2023-06-21T18:08:46.596Z,101560.19
2023-06-21T18:11:13.055Z,101555.78
2023-06-21T18:13:39.489Z,101555.81
2023-06-21T18:16:05.967Z,101558.59
2023-06-21T18:18:33.065Z,101557.97
2023-06-21T18:20:59.542Z,101557.56
2023-06-21T18:23:26.034Z,101549.91
2023-06-21T18:25:52.539Z,101551.81
2023-06-21T18:28:19.083Z,101549.50
2023-06-21T18:30:45.581Z,101545.88
2023-06-21T18:33:12.150Z,101552.81
2023-06-21T18:35:41.047Z,101556.19
2023-06-21T18:38:07.537Z,101544.59
2023-06-21T18:40:36.277Z,101554.97
2023-06-21T18:43:03.643Z,101551.53
2023-06-21T18:45:30.173Z,101571.16
2023-06-21T18:47:56.740Z,101566.84
2023-06-21T18:50:24.219Z,101561.16
2023-06-21T18:52:50.710Z,101566.19
2023-06-21T18:55:17.121Z,101566.53
2023-06-21T18:57:43.711Z,101566.50
2023-06-21T19:00:10.683Z,101582.47
2023-06-21T19:02:37.620Z,101584.13
2023-06-21T19:05:04.522Z,101581.97
2023-06-21T19:07:31.130Z,101585.53
2023-06-21T19:09:58.630Z,101592.84
2023-06-21T19:12:25.172Z,101574.44
2023-06-21T19:14:52.394Z,101592.13
2023-06-21T19:17:18.905Z,101587.69
2023-06-21T19:19:45.555Z,101588.53
2023-06-21T19:22:12.572Z,101587.28
2023-06-21T19:24:39.033Z,101583.06
2023-06-21T19:27:05.846Z,101579.00
2023-06-21T19:29:32.397Z,101585.94
2023-06-21T19:31:58.822Z,101584.63
2023-06-21T19:34:25.631Z,101599.38
2023-06-21T19:36:52.287Z,101597.94
2023-06-21T19:39:18.776Z,101596.50
2023-06-21T19:41:45.560Z,101598.84
2023-06-21T19:44:12.078Z,101597.81
2023-06-21T19:46:40.634Z,101601.22
2023-06-21T19:49:07.126Z,101606.75
2023-06-21T19:51:33.700Z,101607.63
2023-06-21T19:54:03.037Z,101601.63
2023-06-21T19:56:29.498Z,101599.13
2023-06-21T19:58:58.120Z,101602.53
2023-06-21T20:01:24.666Z,101606.72
2023-06-21T20:03:51.330Z,101619.16
2023-06-21T20:06:17.858Z,101634.97
2023-06-21T20:08:44.332Z,101638.13
2023-06-21T20:11:11.913Z,101636.97
2023-06-21T20:13:40.969Z,101633.56
2023-06-21T20:16:10.582Z,101628.44
2023-06-21T20:18:37.519Z,101640.31
2023-06-21T20:21:04.485Z,101630.94
2023-06-21T20:23:31.174Z,101635.63
2023-06-21T20:25:57.615Z,101632.31
2023-06-21T20:28:24.070Z,101627.59
2023-06-21T20:30:51.115Z,101637.97
2023-06-21T20:33:17.564Z,101644.25
2023-06-21T20:35:44.068Z,101638.75
2023-06-21T20:38:13.869Z,101635.75
2023-06-21T20:40:40.431Z,101632.72
2023-06-21T20:43:09.646Z,101637.28
2023-06-21T20:45:36.073Z,101635.06
2023-06-21T20:48:04.725Z,101637.78
2023-06-21T20:50:31.613Z,101646.66
2023-06-21T20:52:58.530Z,101637.84
2023-06-21T20:55:27.795Z,101635.19
2023-06-21T20:57:55.044Z,101628.44
2023-06-21T21:00:25.344Z,101642.75
2023-06-21T21:02:52.288Z,101640.81
2023-06-21T21:05:19.168Z,101641.41
2023-06-21T21:07:45.885Z,101635.94
2023-06-21T21:10:12.781Z,101645.84
2023-06-21T21:12:39.708Z,101648.13
2023-06-21T21:15:06.647Z,101663.34
2023-06-21T21:17:36.129Z,101668.38
2023-06-21T21:20:02.650Z,101663.72
2023-06-21T21:22:29.149Z,101668.75
2023-06-21T21:24:55.550Z,101664.38
2023-06-21T21:27:22.015Z,101670.91
2023-06-21T21:29:48.580Z,101660.84
2023-06-21T21:32:15.091Z,101667.22
2023-06-21T21:34:41.517Z,101671.75
2023-06-21T21:37:08.009Z,101667.03
2023-06-21T21:39:34.814Z,101673.28
2023-06-21T21:42:01.280Z,101684.91
2023-06-21T21:44:28.010Z,101690.78
2023-06-21T21:46:55.094Z,101677.22
2023-06-21T21:49:21.619Z,101690.53
2023-06-21T21:51:48.210Z,101682.72
2023-06-21T21:54:14.704Z,101678.47
2023-06-21T21:56:41.172Z,101684.13
2023-06-21T21:59:07.616Z,101680.72
2023-06-21T22:01:34.662Z,101684.88
2023-06-21T22:04:01.298Z,101684.22
2023-06-21T22:06:27.813Z,101691.75
2023-06-21T22:08:55.141Z,101693.91
2023-06-21T22:11:21.629Z,101685.41
2023-06-21T22:13:48.130Z,101689.56
2023-06-21T22:16:18.221Z,101695.59
2023-06-21T22:18:44.759Z,101688.78
2023-06-21T22:21:11.400Z,101692.25
2023-06-21T22:23:37.857Z,101692.13
2023-06-21T22:26:05.031Z,101682.75
2023-06-21T22:28:32.021Z,101689.63
2023-06-21T22:30:58.464Z,101693.59
2023-06-21T22:33:25.144Z,101699.91
2023-06-21T22:35:51.586Z,101693.94
2023-06-21T22:38:18.061Z,101697.53
2023-06-21T22:40:44.572Z,101699.81
2023-06-21T22:43:11.174Z,101700.00
2023-06-21T22:45:42.203Z,101689.56
2023-06-21T22:48:09.596Z,101698.22
2023-06-21T22:50:36.387Z,101691.72
2023-06-21T22:53:05.136Z,101691.16
2023-06-21T22:55:31.630Z,101686.66
2023-06-21T22:58:00.988Z,101686.94
2023-06-21T23:00:27.885Z,101694.13
2023-06-21T23:02:54.669Z,101685.91
2023-06-21T23:05:21.383Z,101694.50
2023-06-21T23:07:47.873Z,101689.75
2023-06-21T23:10:14.401Z,101689.09
2023-06-21T23:12:45.206Z,101695.41
2023-06-21T23:15:15.043Z,101694.28
2023-06-21T23:17:45.506Z,101694.47
2023-06-21T23:20:15.541Z,101697.69
2023-06-21T23:22:43.194Z,101696.72
2023-06-21T23:25:11.673Z,101700.56
2023-06-21T23:27:41.665Z,101703.06
2023-06-21T23:30:13.209Z,101704.69
2023-06-21T23:32:47.188Z,101702.88
2023-06-21T23:35:13.915Z,101712.00
2023-06-21T23:37:40.543Z,101708.28
2023-06-21T23:40:15.190Z,101715.31
2023-06-21T23:42:41.685Z,101710.59
2023-06-21T23:45:08.512Z,101707.53
2023-06-21T23:47:35.414Z,101704.13
2023-06-21T23:50:02.931Z,101708.91
2023-06-21T23:52:29.379Z,101701.78
2023-06-21T23:54:56.787Z,101697.91
2023-06-21T23:57:23.397Z,101700.16
2023-06-21T23:59:49.873Z,101696.41
